Clyde, Texas
Current Conditions -  °F | °C
As of 2:52 PM on Tuesday 21 Oct 2014 (Local Time) from KABI Reporting Station
Clear Clear  
Wind Chill: 80°   Ceiling: Unl
Heat Index: 80°   Visibility: 10mi
Dew Point: 50°   Wind: 14mph
Humidity: 35%   Direction: 130°SE
Pressure: 30.04"   Gusts: 21mph
Location:  32.41°N, 99.49°W
Report Text: KABI 211952Z 13012G18KT 10SM CLR 27/10 A3004 RMK AO2 SLP151 T02670100
Loading
Personal Weather Stations






























Interactive Weather Map
Tropical Storm Tracking
New forecast layout! Learn more

10-Day Weather Forecast

Advertisements
Track Severe Weather on mobile